Port William, Ohio
Current Conditions -  °F | °C
As of 2:54 AM on Friday 19 Dec 2014 (Local Time) from KILN Reporting Station
Overcast Overcast  
Wind Chill: 18°   Ceiling: 1500
Heat Index: 27°   Visibility: 8mi
Dew Point: 20°   Wind: 9mph
Humidity: 75%   Direction: 320°NW
Pressure: 30.21"   Gusts: NA
Location:  39.55°N, 83.79°W
Report Text: KILN 190754Z AUTO 32008KT 8SM OVC015 M03/M07 A3021 RMK AO2 SLP261 T10281067
Loading
Personal Weather Stations






























Interactive Weather Map New forecast layout! Learn more

10-Day Weather Forecast

Advertisements
Track Severe Weather on mobile